Strona główna
METAR-TAF:

METAR-TAF

Lotnisko :

Port lotniczy Sibu

Sibu, Malezja

Szerokość geograficzna: 02-20N, Długość geograficzna: 111-50E, wysokość: 8 m

Aktualna obserwacja pogody

Raport powstał 26 minut temu, godzina 05:00 UTC
Wiatr 3 kt od zachodnio-północny zachód, zmienny między zachodnio-południowy zachód i północ
Temperatura 30°C
Wilgotność 75%
Ciśnienie 1010 hPa
Widzialność 10 km lub więcej
Rozproszone chmury na wysokości 1800 ft
Przerywane chmury na wysokości 15000 ft

METAR: WBGS 070500Z 30003KT 240V350 9999 SCT018 BKN150 30/25 Q1010

czas: 13:26 (05:26 UTC)

Prognoza

Raport powstał 6 godziny i 26 minut temu, godzina 23:00 UTC
Prognoza ważna od 07 godzina 00 UTC do 08 godzina 00 UTC
Wiatr 3 kt z kierunków zmiennych
Widzialność 10 km lub więcej
Rozproszone chmury na wysokości 1800 ft
Przejściowo
od 07 godzina 06 UTC do 07 godzina 10 UTC
Widzialność: 4000 m
Mało chmury na wysokości 500 ft
Rozproszone chmury na wysokości 1400 ft
deszcz

TAF: WBGS 062300Z 0700/0800 VRB03KT 9999 SCT018 TEMPO 0706/0710 4000 RA FEW005 SCT014

Obserwacja i prognoza pogody dla ponad 4000 lotnisk (raport METAR i TAF).

Dostępne stacje oznaczono żółtymi i czerwonymi punktami na mapie.

Najedź kursorem aby zobaczyć nazwę stacji.

Kliknij aby zobaczyć obserwacje i prognozy pogody.

Aby zmienić mapę: kliknij na zielony przycisk z czarnym krzyżykiem, aby powiększyć; na zielony przycisk z myślnikiem, aby pomniejszyć; na zielone strzałki, aby przejść do map sąsiednich.


METAR-TAF: